sensor_id;sensor_type;location;lat;lon;timestamp;P1;durP1;ratioP1;P2;durP2;ratioP2
23187;SDS011;11762;59.878;17.686;2022-12-07T00:01:39;8.47;;;1.60;;
23187;SDS011;11762;59.878;17.686;2022-12-07T00:04:10;3.50;;;1.70;;
23187;SDS011;11762;59.878;17.686;2022-12-07T00:06:38;4.37;;;2.00;;
23187;SDS011;11762;59.878;17.686;2022-12-07T00:09:08;4.87;;;1.93;;
23187;SDS011;11762;59.878;17.686;2022-12-07T00:11:37;8.50;;;1.80;;
23187;SDS011;11762;59.878;17.686;2022-12-07T00:14:04;5.03;;;2.27;;
23187;SDS011;11762;59.878;17.686;2022-12-07T00:16:33;6.37;;;2.30;;
23187;SDS011;11762;59.878;17.686;2022-12-07T00:19:01;4.90;;;1.67;;
23187;SDS011;11762;59.878;17.686;2022-12-07T00:21:31;4.43;;;2.00;;
23187;SDS011;11762;59.878;17.686;2022-12-07T00:24:00;3.23;;;1.53;;
23187;SDS011;11762;59.878;17.686;2022-12-07T00:26:28;7.97;;;2.47;;
23187;SDS011;11762;59.878;17.686;2022-12-07T00:28:56;4.07;;;1.80;;
23187;SDS011;11762;59.878;17.686;2022-12-07T00:31:25;4.47;;;1.93;;
23187;SDS011;11762;59.878;17.686;2022-12-07T00:33:54;5.63;;;2.07;;
23187;SDS011;11762;59.878;17.686;2022-12-07T00:36:22;5.47;;;1.97;;
23187;SDS011;11762;59.878;17.686;2022-12-07T00:38:52;4.50;;;2.00;;
23187;SDS011;11762;59.878;17.686;2022-12-07T00:41:20;7.53;;;1.80;;
23187;SDS011;11762;59.878;17.686;2022-12-07T00:43:48;4.33;;;1.80;;
23187;SDS011;11762;59.878;17.686;2022-12-07T00:46:16;4.33;;;1.70;;
23187;SDS011;11762;59.878;17.686;2022-12-07T00:48:44;8.37;;;2.10;;
23187;SDS011;11762;59.878;17.686;2022-12-07T00:51:12;6.80;;;2.13;;
23187;SDS011;11762;59.878;17.686;2022-12-07T00:53:40;6.43;;;2.03;;
23187;SDS011;11762;59.878;17.686;2022-12-07T00:56:10;4.50;;;2.03;;
23187;SDS011;11762;59.878;17.686;2022-12-07T00:58:39;4.10;;;1.93;;
23187;SDS011;11762;59.878;17.686;2022-12-07T01:01:07;5.27;;;1.90;;
23187;SDS011;11762;59.878;17.686;2022-12-07T01:03:35;5.47;;;1.73;;
23187;SDS011;11762;59.878;17.686;2022-12-07T01:06:02;4.60;;;2.10;;
23187;SDS011;11762;59.878;17.686;2022-12-07T01:08:30;4.50;;;1.43;;
23187;SDS011;11762;59.878;17.686;2022-12-07T01:10:57;3.87;;;1.57;;
23187;SDS011;11762;59.878;17.686;2022-12-07T01:13:27;4.40;;;1.83;;
23187;SDS011;11762;59.878;17.686;2022-12-07T01:15:56;7.37;;;2.10;;
23187;SDS011;11762;59.878;17.686;2022-12-07T01:18:25;5.30;;;2.23;;
23187;SDS011;11762;59.878;17.686;2022-12-07T01:20:59;5.63;;;2.00;;
23187;SDS011;11762;59.878;17.686;2022-12-07T01:23:27;4.73;;;1.70;;
23187;SDS011;11762;59.878;17.686;2022-12-07T01:25:55;4.13;;;1.60;;
23187;SDS011;11762;59.878;17.686;2022-12-07T01:28:22;7.40;;;2.30;;
23187;SDS011;11762;59.878;17.686;2022-12-07T01:30:58;4.73;;;1.80;;
23187;SDS011;11762;59.878;17.686;2022-12-07T01:33:27;4.13;;;1.73;;
23187;SDS011;11762;59.878;17.686;2022-12-07T01:35:55;5.30;;;1.70;;
23187;SDS011;11762;59.878;17.686;2022-12-07T01:38:27;3.60;;;1.37;;
23187;SDS011;11762;59.878;17.686;2022-12-07T01:40:55;3.20;;;1.53;;
23187;SDS011;11762;59.878;17.686;2022-12-07T01:43:22;5.47;;;1.90;;
23187;SDS011;11762;59.878;17.686;2022-12-07T01:45:51;4.90;;;1.83;;
23187;SDS011;11762;59.878;17.686;2022-12-07T01:48:20;4.03;;;1.60;;
23187;SDS011;11762;59.878;17.686;2022-12-07T01:50:50;9.67;;;1.90;;
23187;SDS011;11762;59.878;17.686;2022-12-07T01:53:19;5.93;;;1.80;;
23187;SDS011;11762;59.878;17.686;2022-12-07T01:55:47;7.63;;;1.90;;
23187;SDS011;11762;59.878;17.686;2022-12-07T01:58:17;4.40;;;1.30;;
23187;SDS011;11762;59.878;17.686;2022-12-07T02:00:45;7.17;;;1.60;;
23187;SDS011;11762;59.878;17.686;2022-12-07T02:03:13;6.27;;;1.47;;
23187;SDS011;11762;59.878;17.686;2022-12-07T02:05:45;4.53;;;1.93;;
23187;SDS011;11762;59.878;17.686;2022-12-07T02:08:14;3.50;;;1.53;;
23187;SDS011;11762;59.878;17.686;2022-12-07T02:10:42;5.00;;;1.23;;
23187;SDS011;11762;59.878;17.686;2022-12-07T02:13:10;4.47;;;1.53;;
23187;SDS011;11762;59.878;17.686;2022-12-07T02:15:41;7.83;;;1.93;;
23187;SDS011;11762;59.878;17.686;2022-12-07T02:18:20;10.17;;;2.23;;
23187;SDS011;11762;59.878;17.686;2022-12-07T02:20:59;6.33;;;1.73;;
23187;SDS011;11762;59.878;17.686;2022-12-07T02:23:40;3.43;;;1.57;;
23187;SDS011;11762;59.878;17.686;2022-12-07T02:26:34;8.90;;;1.80;;
23187;SDS011;11762;59.878;17.686;2022-12-07T02:29:16;4.93;;;1.57;;
23187;SDS011;11762;59.878;17.686;2022-12-07T02:31:50;4.90;;;1.60;;
23187;SDS011;11762;59.878;17.686;2022-12-07T02:34:26;4.03;;;1.47;;
23187;SDS011;11762;59.878;17.686;2022-12-07T02:37:00;7.03;;;2.50;;
23187;SDS011;11762;59.878;17.686;2022-12-07T02:39:36;5.60;;;1.80;;
23187;SDS011;11762;59.878;17.686;2022-12-07T02:42:09;3.77;;;1.70;;
23187;SDS011;11762;59.878;17.686;2022-12-07T02:44:43;5.27;;;1.97;;
23187;SDS011;11762;59.878;17.686;2022-12-07T02:47:12;8.90;;;2.20;;
23187;SDS011;11762;59.878;17.686;2022-12-07T02:49:42;7.43;;;1.77;;
23187;SDS011;11762;59.878;17.686;2022-12-07T02:52:09;8.90;;;1.80;;
23187;SDS011;11762;59.878;17.686;2022-12-07T02:54:36;6.10;;;2.37;;
23187;SDS011;11762;59.878;17.686;2022-12-07T02:57:06;6.37;;;2.20;;
23187;SDS011;11762;59.878;17.686;2022-12-07T02:59:48;5.67;;;2.00;;
23187;SDS011;11762;59.878;17.686;2022-12-07T03:02:28;4.60;;;2.13;;
23187;SDS011;11762;59.878;17.686;2022-12-07T03:05:07;8.03;;;1.90;;
23187;SDS011;11762;59.878;17.686;2022-12-07T03:07:48;8.50;;;2.03;;
23187;SDS011;11762;59.878;17.686;2022-12-07T03:10:22;5.67;;;2.07;;
23187;SDS011;11762;59.878;17.686;2022-12-07T03:12:58;7.33;;;2.00;;
23187;SDS011;11762;59.878;17.686;2022-12-07T03:15:33;5.77;;;2.27;;
23187;SDS011;11762;59.878;17.686;2022-12-07T03:18:06;5.50;;;2.00;;
23187;SDS011;11762;59.878;17.686;2022-12-07T03:20:35;7.90;;;2.30;;
23187;SDS011;11762;59.878;17.686;2022-12-07T03:23:06;6.60;;;2.37;;
23187;SDS011;11762;59.878;17.686;2022-12-07T03:25:37;4.20;;;2.00;;
23187;SDS011;11762;59.878;17.686;2022-12-07T03:28:08;7.07;;;2.30;;
23187;SDS011;11762;59.878;17.686;2022-12-07T03:30:39;8.57;;;2.30;;
23187;SDS011;11762;59.878;17.686;2022-12-07T03:33:13;9.90;;;2.57;;
23187;SDS011;11762;59.878;17.686;2022-12-07T03:35:47;4.50;;;2.03;;
23187;SDS011;11762;59.878;17.686;2022-12-07T03:38:20;5.33;;;2.27;;
23187;SDS011;11762;59.878;17.686;2022-12-07T03:40:52;10.30;;;2.50;;
23187;SDS011;11762;59.878;17.686;2022-12-07T03:43:26;5.73;;;2.30;;
23187;SDS011;11762;59.878;17.686;2022-12-07T03:45:59;6.73;;;2.17;;
23187;SDS011;11762;59.878;17.686;2022-12-07T03:48:34;7.33;;;2.20;;
23187;SDS011;11762;59.878;17.686;2022-12-07T03:51:06;6.20;;;2.33;;
23187;SDS011;11762;59.878;17.686;2022-12-07T03:53:40;7.93;;;2.30;;
23187;SDS011;11762;59.878;17.686;2022-12-07T03:56:12;6.87;;;2.00;;
23187;SDS011;11762;59.878;17.686;2022-12-07T03:58:40;8.40;;;2.17;;
23187;SDS011;11762;59.878;17.686;2022-12-07T04:01:10;9.27;;;2.33;;
23187;SDS011;11762;59.878;17.686;2022-12-07T04:03:37;8.30;;;2.50;;
23187;SDS011;11762;59.878;17.686;2022-12-07T04:06:04;6.63;;;2.20;;
23187;SDS011;11762;59.878;17.686;2022-12-07T04:08:31;7.73;;;2.67;;
23187;SDS011;11762;59.878;17.686;2022-12-07T04:10:58;7.33;;;2.33;;
23187;SDS011;11762;59.878;17.686;2022-12-07T04:13:25;9.37;;;2.20;;
23187;SDS011;11762;59.878;17.686;2022-12-07T04:15:52;8.37;;;2.27;;
23187;SDS011;11762;59.878;17.686;2022-12-07T04:18:20;7.83;;;1.80;;
23187;SDS011;11762;59.878;17.686;2022-12-07T04:20:48;5.03;;;2.07;;
23187;SDS011;11762;59.878;17.686;2022-12-07T04:23:14;4.97;;;2.20;;
23187;SDS011;11762;59.878;17.686;2022-12-07T04:25:43;4.70;;;2.13;;
23187;SDS011;11762;59.878;17.686;2022-12-07T04:28:10;5.93;;;1.77;;
23187;SDS011;11762;59.878;17.686;2022-12-07T04:30:36;4.30;;;2.00;;
23187;SDS011;11762;59.878;17.686;2022-12-07T04:33:03;6.93;;;2.10;;
23187;SDS011;11762;59.878;17.686;2022-12-07T04:35:32;3.93;;;1.83;;
23187;SDS011;11762;59.878;17.686;2022-12-07T04:37:59;8.10;;;2.17;;
23187;SDS011;11762;59.878;17.686;2022-12-07T04:40:26;6.00;;;1.67;;
23187;SDS011;11762;59.878;17.686;2022-12-07T04:42:53;8.67;;;1.93;;
23187;SDS011;11762;59.878;17.686;2022-12-07T04:45:19;3.97;;;1.43;;
23187;SDS011;11762;59.878;17.686;2022-12-07T04:47:46;7.73;;;1.87;;
23187;SDS011;11762;59.878;17.686;2022-12-07T04:50:13;9.43;;;1.90;;
23187;SDS011;11762;59.878;17.686;2022-12-07T04:52:42;8.93;;;2.10;;
23187;SDS011;11762;59.878;17.686;2022-12-07T04:55:09;2.37;;;1.43;;
23187;SDS011;11762;59.878;17.686;2022-12-07T04:57:36;8.07;;;2.40;;
23187;SDS011;11762;59.878;17.686;2022-12-07T05:00:03;4.37;;;1.30;;
23187;SDS011;11762;59.878;17.686;2022-12-07T05:02:32;5.20;;;1.60;;
23187;SDS011;11762;59.878;17.686;2022-12-07T05:04:59;4.93;;;1.77;;
23187;SDS011;11762;59.878;17.686;2022-12-07T05:07:26;4.17;;;1.33;;
23187;SDS011;11762;59.878;17.686;2022-12-07T05:09:54;3.73;;;1.40;;
23187;SDS011;11762;59.878;17.686;2022-12-07T05:12:21;9.50;;;2.40;;
23187;SDS011;11762;59.878;17.686;2022-12-07T05:14:48;4.50;;;1.80;;
23187;SDS011;11762;59.878;17.686;2022-12-07T05:17:15;5.13;;;1.90;;
23187;SDS011;11762;59.878;17.686;2022-12-07T05:19:42;5.10;;;1.83;;
23187;SDS011;11762;59.878;17.686;2022-12-07T05:22:09;3.07;;;1.40;;
23187;SDS011;11762;59.878;17.686;2022-12-07T05:24:36;8.57;;;2.47;;
23187;SDS011;11762;59.878;17.686;2022-12-07T05:27:05;5.67;;;2.33;;
23187;SDS011;11762;59.878;17.686;2022-12-07T05:29:32;5.30;;;1.80;;
23187;SDS011;11762;59.878;17.686;2022-12-07T05:31:58;6.93;;;1.70;;
23187;SDS011;11762;59.878;17.686;2022-12-07T05:34:26;8.67;;;2.10;;
23187;SDS011;11762;59.878;17.686;2022-12-07T05:36:53;5.30;;;1.53;;
23187;SDS011;11762;59.878;17.686;2022-12-07T05:39:20;3.53;;;1.60;;
23187;SDS011;11762;59.878;17.686;2022-12-07T05:41:47;8.87;;;2.00;;
23187;SDS011;11762;59.878;17.686;2022-12-07T05:44:32;7.03;;;1.93;;
23187;SDS011;11762;59.878;17.686;2022-12-07T05:46:59;5.90;;;2.00;;
23187;SDS011;11762;59.878;17.686;2022-12-07T05:49:26;6.50;;;1.73;;
23187;SDS011;11762;59.878;17.686;2022-12-07T05:51:53;9.10;;;1.87;;
23187;SDS011;11762;59.878;17.686;2022-12-07T05:54:20;6.27;;;1.80;;
23187;SDS011;11762;59.878;17.686;2022-12-07T05:56:47;5.50;;;1.90;;
23187;SDS011;11762;59.878;17.686;2022-12-07T05:59:14;6.57;;;1.43;;
23187;SDS011;11762;59.878;17.686;2022-12-07T06:01:51;4.57;;;1.37;;
23187;SDS011;11762;59.878;17.686;2022-12-07T06:04:19;4.23;;;1.40;;
23187;SDS011;11762;59.878;17.686;2022-12-07T06:06:47;6.30;;;1.83;;
23187;SDS011;11762;59.878;17.686;2022-12-07T06:09:14;5.17;;;1.30;;
23187;SDS011;11762;59.878;17.686;2022-12-07T06:11:41;4.27;;;1.80;;
23187;SDS011;11762;59.878;17.686;2022-12-07T06:14:26;5.53;;;1.80;;
23187;SDS011;11762;59.878;17.686;2022-12-07T06:16:54;8.10;;;1.80;;
23187;SDS011;11762;59.878;17.686;2022-12-07T06:19:21;4.47;;;1.43;;
23187;SDS011;11762;59.878;17.686;2022-12-07T06:21:48;3.13;;;1.47;;
23187;SDS011;11762;59.878;17.686;2022-12-07T06:24:16;4.50;;;1.90;;
23187;SDS011;11762;59.878;17.686;2022-12-07T06:26:44;5.03;;;1.67;;
23187;SDS011;11762;59.878;17.686;2022-12-07T06:29:11;4.10;;;1.53;;
23187;SDS011;11762;59.878;17.686;2022-12-07T06:31:39;3.60;;;1.50;;
23187;SDS011;11762;59.878;17.686;2022-12-07T06:34:09;4.67;;;1.40;;
23187;SDS011;11762;59.878;17.686;2022-12-07T06:36:37;7.20;;;1.57;;
23187;SDS011;11762;59.878;17.686;2022-12-07T06:39:04;7.97;;;2.40;;
23187;SDS011;11762;59.878;17.686;2022-12-07T06:41:34;6.20;;;2.07;;
23187;SDS011;11762;59.878;17.686;2022-12-07T06:44:01;11.77;;;1.87;;
23187;SDS011;11762;59.878;17.686;2022-12-07T06:46:28;5.90;;;1.97;;
23187;SDS011;11762;59.878;17.686;2022-12-07T06:48:55;5.30;;;2.00;;
23187;SDS011;11762;59.878;17.686;2022-12-07T06:51:24;3.90;;;2.00;;
23187;SDS011;11762;59.878;17.686;2022-12-07T06:53:51;7.33;;;2.73;;
23187;SDS011;11762;59.878;17.686;2022-12-07T06:56:17;5.77;;;2.40;;
23187;SDS011;11762;59.878;17.686;2022-12-07T06:58:45;6.60;;;2.53;;
23187;SDS011;11762;59.878;17.686;2022-12-07T07:01:13;4.30;;;2.13;;
23187;SDS011;11762;59.878;17.686;2022-12-07T07:03:41;11.37;;;2.27;;
23187;SDS011;11762;59.878;17.686;2022-12-07T07:06:09;8.77;;;2.33;;
23187;SDS011;11762;59.878;17.686;2022-12-07T07:08:39;10.00;;;2.50;;
23187;SDS011;11762;59.878;17.686;2022-12-07T07:11:06;7.67;;;2.47;;
23187;SDS011;11762;59.878;17.686;2022-12-07T07:13:34;8.97;;;2.50;;
23187;SDS011;11762;59.878;17.686;2022-12-07T07:16:01;10.33;;;2.27;;
23187;SDS011;11762;59.878;17.686;2022-12-07T07:18:28;5.17;;;2.30;;
23187;SDS011;11762;59.878;17.686;2022-12-07T07:20:55;11.33;;;2.47;;
23187;SDS011;11762;59.878;17.686;2022-12-07T07:23:23;9.77;;;2.23;;
23187;SDS011;11762;59.878;17.686;2022-12-07T07:25:51;13.63;;;2.70;;
23187;SDS011;11762;59.878;17.686;2022-12-07T07:28:18;7.57;;;2.87;;
23187;SDS011;11762;59.878;17.686;2022-12-07T07:30:45;5.53;;;2.60;;
23187;SDS011;11762;59.878;17.686;2022-12-07T07:33:12;11.97;;;2.07;;
23187;SDS011;11762;59.878;17.686;2022-12-07T07:35:39;5.53;;;2.47;;
23187;SDS011;11762;59.878;17.686;2022-12-07T07:38:06;7.93;;;2.80;;
23187;SDS011;11762;59.878;17.686;2022-12-07T07:40:33;10.53;;;2.53;;
23187;SDS011;11762;59.878;17.686;2022-12-07T07:43:02;7.13;;;2.87;;
23187;SDS011;11762;59.878;17.686;2022-12-07T07:45:29;7.50;;;2.37;;
23187;SDS011;11762;59.878;17.686;2022-12-07T07:47:56;6.90;;;2.90;;
23187;SDS011;11762;59.878;17.686;2022-12-07T07:50:23;4.10;;;1.70;;
23187;SDS011;11762;59.878;17.686;2022-12-07T07:52:50;8.80;;;2.63;;
23187;SDS011;11762;59.878;17.686;2022-12-07T07:55:17;5.63;;;2.10;;
23187;SDS011;11762;59.878;17.686;2022-12-07T07:57:44;7.73;;;1.90;;
23187;SDS011;11762;59.878;17.686;2022-12-07T08:00:13;5.47;;;2.07;;
23187;SDS011;11762;59.878;17.686;2022-12-07T08:02:42;3.20;;;1.57;;
23187;SDS011;11762;59.878;17.686;2022-12-07T08:05:09;4.63;;;1.70;;
23187;SDS011;11762;59.878;17.686;2022-12-07T08:07:37;8.00;;;1.93;;
23187;SDS011;11762;59.878;17.686;2022-12-07T08:10:04;9.50;;;1.53;;
23187;SDS011;11762;59.878;17.686;2022-12-07T08:12:35;6.23;;;1.87;;
23187;SDS011;11762;59.878;17.686;2022-12-07T08:15:02;7.43;;;2.23;;
23187;SDS011;11762;59.878;17.686;2022-12-07T08:17:31;5.43;;;1.73;;
23187;SDS011;11762;59.878;17.686;2022-12-07T08:19:59;7.23;;;1.70;;
23187;SDS011;11762;59.878;17.686;2022-12-07T08:22:27;4.13;;;1.63;;
23187;SDS011;11762;59.878;17.686;2022-12-07T08:24:54;10.67;;;2.07;;
23187;SDS011;11762;59.878;17.686;2022-12-07T08:27:21;5.07;;;1.70;;
23187;SDS011;11762;59.878;17.686;2022-12-07T08:29:51;4.20;;;1.83;;
23187;SDS011;11762;59.878;17.686;2022-12-07T08:32:18;6.43;;;1.90;;
23187;SDS011;11762;59.878;17.686;2022-12-07T08:34:47;7.07;;;1.73;;
23187;SDS011;11762;59.878;17.686;2022-12-07T08:37:15;13.30;;;2.20;;
23187;SDS011;11762;59.878;17.686;2022-12-07T08:39:42;10.77;;;2.20;;
23187;SDS011;11762;59.878;17.686;2022-12-07T08:42:08;6.40;;;2.10;;
23187;SDS011;11762;59.878;17.686;2022-12-07T08:44:35;5.03;;;2.00;;
23187;SDS011;11762;59.878;17.686;2022-12-07T08:47:04;3.87;;;1.90;;
23187;SDS011;11762;59.878;17.686;2022-12-07T08:49:33;10.63;;;2.30;;
23187;SDS011;11762;59.878;17.686;2022-12-07T08:52:05;7.73;;;2.57;;
23187;SDS011;11762;59.878;17.686;2022-12-07T08:54:33;7.63;;;2.50;;
23187;SDS011;11762;59.878;17.686;2022-12-07T08:57:02;6.47;;;2.10;;
23187;SDS011;11762;59.878;17.686;2022-12-07T08:59:31;10.93;;;2.03;;
23187;SDS011;11762;59.878;17.686;2022-12-07T09:02:00;9.87;;;2.33;;
23187;SDS011;11762;59.878;17.686;2022-12-07T09:04:27;8.37;;;1.90;;
23187;SDS011;11762;59.878;17.686;2022-12-07T09:06:54;8.70;;;2.33;;
23187;SDS011;11762;59.878;17.686;2022-12-07T09:09:23;4.97;;;2.30;;
23187;SDS011;11762;59.878;17.686;2022-12-07T09:11:50;8.07;;;2.47;;
23187;SDS011;11762;59.878;17.686;2022-12-07T09:14:17;7.33;;;2.10;;
23187;SDS011;11762;59.878;17.686;2022-12-07T09:16:44;8.10;;;2.53;;
23187;SDS011;11762;59.878;17.686;2022-12-07T09:19:11;6.63;;;2.20;;
23187;SDS011;11762;59.878;17.686;2022-12-07T09:21:38;8.77;;;1.70;;
23187;SDS011;11762;59.878;17.686;2022-12-07T09:24:05;9.70;;;2.10;;
23187;SDS011;11762;59.878;17.686;2022-12-07T09:26:34;8.07;;;2.50;;
23187;SDS011;11762;59.878;17.686;2022-12-07T09:29:01;4.37;;;1.80;;
23187;SDS011;11762;59.878;17.686;2022-12-07T09:31:28;11.53;;;2.20;;
23187;SDS011;11762;59.878;17.686;2022-12-07T09:33:55;6.90;;;2.17;;
23187;SDS011;11762;59.878;17.686;2022-12-07T09:36:22;8.27;;;1.93;;
23187;SDS011;11762;59.878;17.686;2022-12-07T09:38:50;6.30;;;1.87;;
23187;SDS011;11762;59.878;17.686;2022-12-07T09:41:17;8.50;;;2.43;;
23187;SDS011;11762;59.878;17.686;2022-12-07T09:43:46;6.20;;;1.97;;
23187;SDS011;11762;59.878;17.686;2022-12-07T09:46:13;6.73;;;1.40;;
23187;SDS011;11762;59.878;17.686;2022-12-07T09:48:43;7.90;;;2.27;;
23187;SDS011;11762;59.878;17.686;2022-12-07T09:51:13;2.87;;;1.23;;
23187;SDS011;11762;59.878;17.686;2022-12-07T09:53:42;8.57;;;2.47;;
23187;SDS011;11762;59.878;17.686;2022-12-07T09:56:11;6.73;;;2.17;;
23187;SDS011;11762;59.878;17.686;2022-12-07T09:58:40;7.97;;;2.00;;
23187;SDS011;11762;59.878;17.686;2022-12-07T10:01:11;6.27;;;2.60;;
23187;SDS011;11762;59.878;17.686;2022-12-07T10:03:40;5.13;;;1.80;;
23187;SDS011;11762;59.878;17.686;2022-12-07T10:06:14;8.13;;;2.57;;
23187;SDS011;11762;59.878;17.686;2022-12-07T10:08:41;3.23;;;1.70;;
23187;SDS011;11762;59.878;17.686;2022-12-07T10:11:09;7.47;;;2.30;;
23187;SDS011;11762;59.878;17.686;2022-12-07T10:13:37;17.30;;;2.43;;
23187;SDS011;11762;59.878;17.686;2022-12-07T10:16:05;11.80;;;2.27;;
23187;SDS011;11762;59.878;17.686;2022-12-07T10:18:54;11.17;;;2.67;;
23187;SDS011;11762;59.878;17.686;2022-12-07T10:21:22;6.70;;;2.23;;
23187;SDS011;11762;59.878;17.686;2022-12-07T10:23:59;6.33;;;2.33;;
23187;SDS011;11762;59.878;17.686;2022-12-07T10:26:29;7.90;;;2.67;;
23187;SDS011;11762;59.878;17.686;2022-12-07T10:28:58;10.57;;;3.57;;
23187;SDS011;11762;59.878;17.686;2022-12-07T10:31:27;17.10;;;5.43;;
23187;SDS011;11762;59.878;17.686;2022-12-07T10:33:57;21.60;;;3.40;;
23187;SDS011;11762;59.878;17.686;2022-12-07T10:36:26;9.27;;;3.53;;
23187;SDS011;11762;59.878;17.686;2022-12-07T10:39:00;10.53;;;2.70;;
23187;SDS011;11762;59.878;17.686;2022-12-07T10:41:30;9.30;;;2.97;;
23187;SDS011;11762;59.878;17.686;2022-12-07T10:43:57;7.03;;;3.20;;
23187;SDS011;11762;59.878;17.686;2022-12-07T10:46:35;14.63;;;3.07;;
23187;SDS011;11762;59.878;17.686;2022-12-07T10:49:24;5.97;;;2.50;;
23187;SDS011;11762;59.878;17.686;2022-12-07T10:52:05;12.20;;;3.73;;
23187;SDS011;11762;59.878;17.686;2022-12-07T10:54:41;16.17;;;3.33;;
23187;SDS011;11762;59.878;17.686;2022-12-07T10:57:20;18.73;;;4.03;;
23187;SDS011;11762;59.878;17.686;2022-12-07T11:00:01;12.70;;;4.17;;
23187;SDS011;11762;59.878;17.686;2022-12-07T11:02:42;12.23;;;4.10;;
23187;SDS011;11762;59.878;17.686;2022-12-07T11:05:22;10.60;;;4.13;;
23187;SDS011;11762;59.878;17.686;2022-12-07T11:07:58;12.97;;;4.70;;
23187;SDS011;11762;59.878;17.686;2022-12-07T11:10:34;12.27;;;4.70;;
23187;SDS011;11762;59.878;17.686;2022-12-07T11:13:19;12.93;;;4.87;;
23187;SDS011;11762;59.878;17.686;2022-12-07T11:16:02;13.27;;;4.77;;
23187;SDS011;11762;59.878;17.686;2022-12-07T11:18:44;12.50;;;4.63;;
23187;SDS011;11762;59.878;17.686;2022-12-07T11:21:20;15.20;;;5.33;;
23187;SDS011;11762;59.878;17.686;2022-12-07T11:23:53;10.63;;;5.10;;
23187;SDS011;11762;59.878;17.686;2022-12-07T11:26:30;9.37;;;5.20;;
23187;SDS011;11762;59.878;17.686;2022-12-07T11:29:20;13.30;;;5.73;;
23187;SDS011;11762;59.878;17.686;2022-12-07T11:32:08;21.53;;;6.00;;
23187;SDS011;11762;59.878;17.686;2022-12-07T11:34:46;13.30;;;6.13;;
23187;SDS011;11762;59.878;17.686;2022-12-07T11:37:25;22.00;;;9.17;;
23187;SDS011;11762;59.878;17.686;2022-12-07T11:39:58;21.53;;;10.30;;
23187;SDS011;11762;59.878;17.686;2022-12-07T11:42:29;22.23;;;8.50;;
23187;SDS011;11762;59.878;17.686;2022-12-07T11:45:02;14.87;;;6.00;;
23187;SDS011;11762;59.878;17.686;2022-12-07T11:47:40;27.20;;;10.57;;
23187;SDS011;11762;59.878;17.686;2022-12-07T11:50:24;42.80;;;15.83;;
23187;SDS011;11762;59.878;17.686;2022-12-07T11:52:57;19.00;;;7.53;;
23187;SDS011;11762;59.878;17.686;2022-12-07T11:55:26;11.20;;;4.67;;
23187;SDS011;11762;59.878;17.686;2022-12-07T11:58:00;15.13;;;3.27;;
23187;SDS011;11762;59.878;17.686;2022-12-07T12:00:30;7.27;;;3.33;;
23187;SDS011;11762;59.878;17.686;2022-12-07T12:02:59;11.90;;;4.30;;
23187;SDS011;11762;59.878;17.686;2022-12-07T12:05:30;12.20;;;3.63;;
23187;SDS011;11762;59.878;17.686;2022-12-07T12:08:01;7.97;;;3.73;;
23187;SDS011;11762;59.878;17.686;2022-12-07T12:10:42;7.10;;;3.10;;
23187;SDS011;11762;59.878;17.686;2022-12-07T12:13:27;7.93;;;2.93;;
23187;SDS011;11762;59.878;17.686;2022-12-07T12:16:15;6.57;;;2.83;;
23187;SDS011;11762;59.878;17.686;2022-12-07T12:19:01;20.67;;;4.77;;
23187;SDS011;11762;59.878;17.686;2022-12-07T12:21:37;14.73;;;5.10;;
23187;SDS011;11762;59.878;17.686;2022-12-07T12:24:09;7.13;;;3.43;;
23187;SDS011;11762;59.878;17.686;2022-12-07T12:26:39;9.57;;;3.33;;
23187;SDS011;11762;59.878;17.686;2022-12-07T12:29:21;6.57;;;3.10;;
23187;SDS011;11762;59.878;17.686;2022-12-07T12:32:05;15.77;;;3.97;;
23187;SDS011;11762;59.878;17.686;2022-12-07T12:34:39;10.20;;;3.67;;
23187;SDS011;11762;59.878;17.686;2022-12-07T12:49:33;10.40;;;3.47;;
23187;SDS011;11762;59.878;17.686;2022-12-07T12:52:02;9.80;;;2.97;;
23187;SDS011;11762;59.878;17.686;2022-12-07T12:55:13;16.30;;;4.20;;
23187;SDS011;11762;59.878;17.686;2022-12-07T12:57:46;8.47;;;3.20;;
23187;SDS011;11762;59.878;17.686;2022-12-07T13:00:17;8.20;;;3.43;;
23187;SDS011;11762;59.878;17.686;2022-12-07T13:02:49;7.60;;;3.97;;
23187;SDS011;11762;59.878;17.686;2022-12-07T13:05:19;13.27;;;3.63;;
23187;SDS011;11762;59.878;17.686;2022-12-07T13:07:52;8.40;;;3.70;;
23187;SDS011;11762;59.878;17.686;2022-12-07T13:10:31;10.80;;;3.77;;
23187;SDS011;11762;59.878;17.686;2022-12-07T13:13:04;10.90;;;3.93;;
23187;SDS011;11762;59.878;17.686;2022-12-07T13:15:52;7.10;;;4.03;;
23187;SDS011;11762;59.878;17.686;2022-12-07T13:18:24;7.53;;;3.40;;
23187;SDS011;11762;59.878;17.686;2022-12-07T13:21:01;10.20;;;3.40;;
23187;SDS011;11762;59.878;17.686;2022-12-07T13:23:29;16.43;;;5.00;;
23187;SDS011;11762;59.878;17.686;2022-12-07T13:28:50;9.27;;;3.70;;
23187;SDS011;11762;59.878;17.686;2022-12-07T13:31:19;16.07;;;3.57;;
23187;SDS011;11762;59.878;17.686;2022-12-07T13:34:27;12.90;;;3.67;;
23187;SDS011;11762;59.878;17.686;2022-12-07T13:36:55;6.63;;;3.03;;
23187;SDS011;11762;59.878;17.686;2022-12-07T13:39:24;8.87;;;4.00;;
23187;SDS011;11762;59.878;17.686;2022-12-07T13:41:52;9.80;;;3.03;;
23187;SDS011;11762;59.878;17.686;2022-12-07T13:44:21;8.53;;;3.73;;
23187;SDS011;11762;59.878;17.686;2022-12-07T13:46:51;6.00;;;3.20;;
23187;SDS011;11762;59.878;17.686;2022-12-07T13:49:25;8.20;;;3.40;;
23187;SDS011;11762;59.878;17.686;2022-12-07T13:51:54;6.73;;;3.70;;
23187;SDS011;11762;59.878;17.686;2022-12-07T13:54:32;15.30;;;5.40;;
23187;SDS011;11762;59.878;17.686;2022-12-07T13:56:59;15.40;;;4.40;;
23187;SDS011;11762;59.878;17.686;2022-12-07T13:59:26;11.37;;;4.60;;
23187;SDS011;11762;59.878;17.686;2022-12-07T14:01:55;11.17;;;5.27;;
23187;SDS011;11762;59.878;17.686;2022-12-07T14:04:34;12.73;;;6.03;;
23187;SDS011;11762;59.878;17.686;2022-12-07T14:09:53;15.33;;;7.03;;
23187;SDS011;11762;59.878;17.686;2022-12-07T14:12:21;8.87;;;3.80;;
23187;SDS011;11762;59.878;17.686;2022-12-07T14:14:49;8.17;;;3.23;;
23187;SDS011;11762;59.878;17.686;2022-12-07T14:17:17;6.37;;;2.77;;
23187;SDS011;11762;59.878;17.686;2022-12-07T14:19:49;7.73;;;3.23;;
23187;SDS011;11762;59.878;17.686;2022-12-07T14:22:19;4.97;;;2.40;;
23187;SDS011;11762;59.878;17.686;2022-12-07T14:24:58;7.73;;;2.63;;
23187;SDS011;11762;59.878;17.686;2022-12-07T14:27:46;9.07;;;4.30;;
23187;SDS011;11762;59.878;17.686;2022-12-07T14:30:16;7.63;;;3.60;;
23187;SDS011;11762;59.878;17.686;2022-12-07T14:32:44;6.60;;;3.30;;
23187;SDS011;11762;59.878;17.686;2022-12-07T14:35:16;5.77;;;2.80;;
23187;SDS011;11762;59.878;17.686;2022-12-07T14:37:45;6.80;;;2.80;;
23187;SDS011;11762;59.878;17.686;2022-12-07T14:40:13;6.50;;;2.63;;
23187;SDS011;11762;59.878;17.686;2022-12-07T14:42:42;10.47;;;3.00;;
23187;SDS011;11762;59.878;17.686;2022-12-07T14:45:13;9.00;;;2.53;;
23187;SDS011;11762;59.878;17.686;2022-12-07T14:47:42;8.13;;;2.60;;
23187;SDS011;11762;59.878;17.686;2022-12-07T14:50:11;6.97;;;2.93;;
23187;SDS011;11762;59.878;17.686;2022-12-07T14:52:40;4.97;;;2.63;;
23187;SDS011;11762;59.878;17.686;2022-12-07T14:55:13;16.50;;;2.77;;
23187;SDS011;11762;59.878;17.686;2022-12-07T14:57:42;8.13;;;2.73;;
23187;SDS011;11762;59.878;17.686;2022-12-07T15:00:13;5.87;;;2.30;;
23187;SDS011;11762;59.878;17.686;2022-12-07T15:02:42;9.23;;;3.33;;
23187;SDS011;11762;59.878;17.686;2022-12-07T15:05:09;9.70;;;3.53;;
23187;SDS011;11762;59.878;17.686;2022-12-07T15:07:36;13.70;;;4.27;;
23187;SDS011;11762;59.878;17.686;2022-12-07T15:10:05;11.33;;;3.63;;